Anatone, Washington
Current Conditions -  °F | °C
As of 10:56 PM on Saturday 25 Oct 2014 (Local Time) from KLWS Reporting Station
Scattered Clouds Scattered Clouds  
Wind Chill: 62°   Ceiling: Unl
Heat Index: 62°   Visibility: 10mi
Dew Point: 42°   Wind: 17mph
Humidity: 48%   Direction: 190°S
Pressure: 29.67"   Gusts: 28mph
Location:  46.13°N, 117.13°W
Report Text: KLWS 260556Z AUTO 19015G24KT 10SM SCT080 17/06 A2967 RMK AO2 SLP046 60001 T01670056 10228 20156 51042
Loading
Personal Weather Stations






























Interactive Weather Map New forecast layout! Learn more

10-Day Weather Forecast

Advertisements
Track Severe Weather on mobile